Time;durP1;ratioP1;P1;durP2;ratioP2;P2;SDS_P1;SDS_P2;PMS_P1;PMS_P2;Temp;Humidity;BMP_temperature;BMP_pressure;BME280_temperature;BME280_humidity;BME280_pressure;Samples;Min_cycle;Max_cycle;Signal;HPM_P1;HPM_P2
2021/10/20 00:01:28;;;;;;;20.23;14.38;;;15.00;99.90;;;;;;5077946;28;20241;-47
2021/10/20 00:03:53;;;;;;;17.63;13.13;;;15.00;99.90;;;;;;5081434;28;20009;-48
2021/10/20 00:06:19;;;;;;;18.83;13.65;;;15.00;99.90;;;;;;5090931;28;20031;-47
2021/10/20 00:08:45;;;;;;;15.95;12.35;;;15.00;99.90;;;;;;5090501;28;20028;-47
2021/10/20 00:11:10;;;;;;;21.58;14.55;;;15.00;99.90;;;;;;5090643;28;20024;-48
2021/10/20 00:13:36;;;;;;;14.57;12.85;;;15.00;99.90;;;;;;5090633;28;20099;-47
2021/10/20 00:16:02;;;;;;;22.27;14.70;;;14.90;99.90;;;;;;5090208;28;20032;-47
2021/10/20 00:18:28;;;;;;;16.45;12.77;;;14.90;99.90;;;;;;5088641;28;20032;-48
2021/10/20 00:20:53;;;;;;;17.83;12.48;;;15.00;99.90;;;;;;5090604;28;20024;-49
2021/10/20 00:23:20;;;;;;;20.42;12.93;;;15.00;99.90;;;;;;5090450;28;20024;-48
2021/10/20 00:25:46;;;;;;;17.13;11.60;;;15.00;99.90;;;;;;5090539;28;20119;-48
2021/10/20 00:28:12;;;;;;;19.83;13.48;;;15.00;99.90;;;;;;5088766;28;20460;-50
2021/10/20 00:30:38;;;;;;;16.30;12.40;;;15.00;99.90;;;;;;5090731;28;20118;-48
2021/10/20 00:33:03;;;;;;;21.35;12.73;;;15.00;99.90;;;;;;5070900;28;20036;-48
2021/10/20 00:35:29;;;;;;;18.63;12.15;;;15.00;99.90;;;;;;5086422;28;20027;-49
2021/10/20 00:37:54;;;;;;;20.27;12.32;;;15.00;99.90;;;;;;5088203;28;20032;-47
2021/10/20 00:40:20;;;;;;;16.75;11.48;;;15.10;99.90;;;;;;5090237;28;20085;-49
2021/10/20 00:42:46;;;;;;;17.27;12.65;;;15.10;99.90;;;;;;5089027;28;20456;-47
2021/10/20 00:45:13;;;;;;;21.67;12.43;;;15.10;99.90;;;;;;5089656;28;20046;-47
2021/10/20 00:47:39;;;;;;;19.13;13.07;;;15.10;99.90;;;;;;5089246;28;20027;-50
2021/10/20 00:50:07;;;;;;;18.88;13.25;;;15.10;99.90;;;;;;5089779;28;20031;-47
2021/10/20 00:52:33;;;;;;;17.42;11.90;;;15.10;99.90;;;;;;5089967;28;20024;-48
2021/10/20 00:55:00;;;;;;;14.57;10.90;;;15.10;99.90;;;;;;5089769;28;20028;-49
2021/10/20 00:57:27;;;;;;;14.30;11.00;;;15.10;99.90;;;;;;5089350;28;20066;-47
2021/10/20 00:59:53;;;;;;;17.48;11.32;;;15.00;99.90;;;;;;5088236;28;20028;-48
2021/10/20 01:02:19;;;;;;;13.57;10.57;;;15.00;99.90;;;;;;5077516;28;20565;-50
2021/10/20 01:04:47;;;;;;;16.02;10.93;;;15.00;99.90;;;;;;5081570;28;20020;-49
2021/10/20 01:07:13;;;;;;;14.52;9.75;;;15.20;99.90;;;;;;5089109;28;20028;-49
2021/10/20 01:09:38;;;;;;;14.15;10.60;;;15.10;99.90;;;;;;5089563;28;20028;-49
2021/10/20 01:12:04;;;;;;;15.77;9.90;;;15.20;99.90;;;;;;5089727;28;20031;-47
2021/10/20 01:14:30;;;;;;;15.55;10.30;;;15.20;99.90;;;;;;5089472;28;20031;-50
2021/10/20 01:16:57;;;;;;;12.90;9.40;;;15.20;99.90;;;;;;5089313;28;20047;-46
2021/10/20 01:19:22;;;;;;;12.75;9.80;;;15.20;99.90;;;;;;5089315;28;20443;-47
2021/10/20 01:21:49;;;;;;;14.02;9.20;;;15.20;99.90;;;;;;5088314;28;20123;-48
2021/10/20 01:24:15;;;;;;;12.75;8.85;;;15.10;99.90;;;;;;5089293;28;20402;-47
2021/10/20 01:26:40;;;;;;;12.90;8.85;;;15.10;99.90;;;;;;5088162;28;20024;-46
2021/10/20 01:29:06;;;;;;;14.05;9.20;;;15.10;99.90;;;;;;5088859;28;20028;-46
2021/10/20 01:31:31;;;;;;;13.68;8.70;;;15.20;99.90;;;;;;5076668;28;20103;-49
2021/10/20 01:33:57;;;;;;;11.30;7.95;;;15.20;99.90;;;;;;5069209;28;20028;-48
2021/10/20 01:36:23;;;;;;;13.48;8.68;;;15.20;99.90;;;;;;5069100;28;20115;-48
2021/10/20 01:38:50;;;;;;;11.45;8.70;;;15.20;99.90;;;;;;5068226;28;20394;-46
2021/10/20 01:41:16;;;;;;;10.05;8.00;;;15.20;99.90;;;;;;5069073;28;20263;-46
2021/10/20 01:43:43;;;;;;;13.52;8.38;;;15.20;99.90;;;;;;5069018;28;20029;-48
2021/10/20 01:46:10;;;;;;;10.68;7.65;;;15.20;99.90;;;;;;5067557;28;20585;-46
2021/10/20 01:48:36;;;;;;;10.60;8.65;;;15.20;99.90;;;;;;5067950;28;20066;-50
2021/10/20 01:51:01;;;;;;;10.43;8.02;;;15.30;99.90;;;;;;5069257;28;20067;-49
2021/10/20 01:53:27;;;;;;;12.38;7.72;;;15.20;99.90;;;;;;5068781;28;20470;-49
2021/10/20 01:55:52;;;;;;;9.20;7.57;;;15.20;99.90;;;;;;5068044;28;20592;-49
2021/10/20 01:58:18;;;;;;;10.38;7.90;;;15.30;99.90;;;;;;5068169;28;20046;-49
2021/10/20 02:00:44;;;;;;;12.30;8.30;;;15.30;99.90;;;;;;5068221;28;20020;-49
2021/10/20 02:03:10;;;;;;;10.55;7.50;;;15.30;99.90;;;;;;5071534;28;20070;-49
2021/10/20 02:05:35;;;;;;;10.57;7.88;;;15.30;99.90;;;;;;5085641;28;20020;-47
2021/10/20 02:08:02;;;;;;;11.68;7.88;;;15.30;99.90;;;;;;5087858;28;20466;-48
2021/10/20 02:10:27;;;;;;;12.35;8.25;;;15.30;99.90;;;;;;5087300;28;20089;-50
2021/10/20 02:12:54;;;;;;;11.85;7.90;;;15.30;99.90;;;;;;5087179;28;20478;-49
2021/10/20 02:15:20;;;;;;;10.63;7.28;;;15.30;99.90;;;;;;5087159;28;20024;-47
2021/10/20 02:17:46;;;;;;;9.27;7.07;;;15.30;99.90;;;;;;5087712;28;20058;-48
2021/10/20 02:20:13;;;;;;;10.90;7.55;;;15.30;99.90;;;;;;5088495;28;20473;-47
2021/10/20 02:22:39;;;;;;;8.52;6.65;;;15.20;99.90;;;;;;5087044;28;20024;-47
2021/10/20 02:25:05;;;;;;;9.70;7.35;;;15.30;99.90;;;;;;5088715;28;20031;-47
2021/10/20 02:27:31;;;;;;;9.90;7.07;;;15.20;99.90;;;;;;5087803;28;20028;-49
2021/10/20 02:29:56;;;;;;;14.57;8.15;;;15.20;99.90;;;;;;5088730;28;20160;-47
2021/10/20 02:32:22;;;;;;;7.72;6.25;;;15.20;99.90;;;;;;5077979;28;20389;-46
2021/10/20 02:34:47;;;;;;;10.40;7.15;;;15.20;99.90;;;;;;5079791;28;20032;-46
2021/10/20 02:37:13;;;;;;;9.02;7.38;;;15.30;99.90;;;;;;5087494;28;20024;-46
2021/10/20 02:39:39;;;;;;;11.18;7.13;;;15.30;99.90;;;;;;5086959;28;20097;-47
2021/10/20 02:42:04;;;;;;;11.82;6.90;;;15.30;99.90;;;;;;5088204;28;20032;-48
2021/10/20 02:44:30;;;;;;;10.73;7.30;;;15.20;99.90;;;;;;5088657;28;20051;-49
2021/10/20 02:46:56;;;;;;;9.43;7.15;;;15.20;99.90;;;;;;5087744;28;20030;-48
2021/10/20 02:49:21;;;;;;;9.30;6.53;;;15.20;99.90;;;;;;5087886;28;20480;-47
2021/10/20 02:51:47;;;;;;;11.02;7.80;;;15.20;99.90;;;;;;5088383;28;20028;-50
2021/10/20 02:54:12;;;;;;;8.93;6.60;;;15.20;99.90;;;;;;5088346;28;20516;-49
2021/10/20 02:56:38;;;;;;;11.70;6.80;;;15.20;99.90;;;;;;5088367;28;20034;-46
2021/10/20 02:59:03;;;;;;;12.55;6.80;;;15.10;99.90;;;;;;5087737;28;20035;-47
2021/10/20 03:01:29;;;;;;;8.35;6.45;;;15.10;99.90;;;;;;5081660;28;20296;-48
2021/10/20 03:03:55;;;;;;;9.18;6.22;;;15.00;99.90;;;;;;5079382;28;20020;-47
2021/10/20 03:06:20;;;;;;;10.02;7.13;;;15.00;99.90;;;;;;5088239;28;20031;-47
2021/10/20 03:08:46;;;;;;;9.63;7.32;;;15.00;99.90;;;;;;5090996;28;20076;-47
2021/10/20 03:11:12;;;;;;;12.80;6.82;;;15.00;99.90;;;;;;5091975;28;20024;-48
2021/10/20 03:13:38;;;;;;;9.82;6.70;;;15.00;99.90;;;;;;5092190;28;20530;-48
2021/10/20 03:16:04;;;;;;;8.15;5.95;;;15.00;99.90;;;;;;5091886;28;20607;-49
2021/10/20 03:18:29;;;;;;;11.35;7.68;;;15.00;99.90;;;;;;5091011;28;20036;-49
2021/10/20 03:20:55;;;;;;;12.20;7.00;;;15.00;99.90;;;;;;5091960;28;20024;-48
2021/10/20 03:23:20;;;;;;;8.55;6.15;;;15.00;99.90;;;;;;5091863;28;20043;-47
2021/10/20 03:25:46;;;;;;;11.48;6.45;;;15.00;99.90;;;;;;5092264;28;20474;-47
2021/10/20 03:28:11;;;;;;;9.35;6.28;;;14.90;99.90;;;;;;5090060;28;20028;-48
2021/10/20 03:30:37;;;;;;;12.30;6.97;;;14.90;99.90;;;;;;5090692;28;20016;-47
2021/10/20 03:33:02;;;;;;;10.05;6.65;;;14.90;99.90;;;;;;5079188;28;20029;-47
2021/10/20 03:35:28;;;;;;;9.13;6.65;;;14.90;99.90;;;;;;5085888;28;20024;-47
2021/10/20 03:37:53;;;;;;;11.95;6.38;;;14.80;99.90;;;;;;5091039;28;20034;-49
2021/10/20 03:40:19;;;;;;;13.73;7.00;;;14.80;99.90;;;;;;5091341;28;20396;-47
2021/10/20 03:42:45;;;;;;;10.48;7.18;;;14.90;99.90;;;;;;5091323;28;20032;-48
2021/10/20 03:45:11;;;;;;;9.85;6.72;;;14.90;99.90;;;;;;5091258;28;20103;-47
2021/10/20 03:47:37;;;;;;;10.95;6.93;;;14.90;99.90;;;;;;5090289;28;20020;-49
2021/10/20 03:50:04;;;;;;;10.00;7.25;;;15.00;99.90;;;;;;5091099;28;20457;-47
2021/10/20 03:52:29;;;;;;;11.43;6.80;;;15.00;99.90;;;;;;5091011;28;20108;-47
2021/10/20 03:54:55;;;;;;;9.98;6.70;;;14.90;99.90;;;;;;5091256;28;20024;-48
2021/10/20 03:57:20;;;;;;;10.13;6.63;;;14.90;99.90;;;;;;5090332;28;20060;-47
2021/10/20 03:59:46;;;;;;;10.43;7.53;;;14.90;99.90;;;;;;5091023;28;20093;-47
2021/10/20 04:02:13;;;;;;;10.43;7.40;;;14.90;99.90;;;;;;5084035;28;20077;-48
2021/10/20 04:04:39;;;;;;;10.48;6.50;;;14.90;99.90;;;;;;5082448;28;20219;-47
2021/10/20 04:07:04;;;;;;;9.00;6.25;;;14.90;99.90;;;;;;5090346;28;20545;-47
2021/10/20 04:09:30;;;;;;;9.80;6.88;;;14.90;99.90;;;;;;5090902;28;20031;-48
2021/10/20 04:11:56;;;;;;;9.90;6.55;;;14.80;99.90;;;;;;5089386;28;20039;-47
2021/10/20 04:14:21;;;;;;;11.73;7.03;;;14.80;99.90;;;;;;5090631;28;20063;-47
2021/10/20 04:16:47;;;;;;;13.05;7.80;;;14.80;99.90;;;;;;5090416;28;20020;-46
2021/10/20 04:19:12;;;;;;;12.93;7.20;;;14.80;99.90;;;;;;5089388;28;20036;-48
2021/10/20 04:21:38;;;;;;;12.57;7.03;;;14.90;99.90;;;;;;5090555;28;20027;-46
2021/10/20 04:24:04;;;;;;;13.50;6.95;;;14.80;99.90;;;;;;5090347;28;20028;-48
2021/10/20 04:26:29;;;;;;;13.93;7.18;;;14.90;99.90;;;;;;5090416;28;20109;-49
2021/10/20 04:28:55;;;;;;;14.52;7.32;;;14.90;99.90;;;;;;5089734;28;20394;-48
2021/10/20 04:31:20;;;;;;;7.72;6.18;;;15.00;99.90;;;;;;5086233;28;20031;-48
2021/10/20 04:33:46;;;;;;;11.93;6.75;;;14.90;99.90;;;;;;5078352;28;20455;-46
2021/10/20 04:36:11;;;;;;;11.45;6.43;;;14.90;99.90;;;;;;5090247;28;20097;-49
2021/10/20 04:38:37;;;;;;;10.02;6.60;;;14.90;99.90;;;;;;5089565;28;20024;-49
2021/10/20 04:41:03;;;;;;;9.88;6.60;;;14.80;99.90;;;;;;5090376;28;20107;-49
2021/10/20 04:43:29;;;;;;;12.70;6.95;;;14.90;99.90;;;;;;5090151;28;20024;-49
2021/10/20 04:45:54;;;;;;;8.40;6.30;;;14.90;99.90;;;;;;5090596;28;20098;-47
2021/10/20 04:48:22;;;;;;;8.40;5.88;;;14.90;99.90;;;;;;5070425;28;20435;-48
2021/10/20 04:50:47;;;;;;;10.85;6.53;;;14.90;99.90;;;;;;5068790;28;20051;-48
2021/10/20 04:53:13;;;;;;;7.70;5.35;;;14.90;99.90;;;;;;5070056;28;20056;-47
2021/10/20 04:55:38;;;;;;;7.13;5.20;;;15.00;99.90;;;;;;5069736;28;20440;-47
2021/10/20 04:58:07;;;;;;;14.15;5.93;;;15.00;99.90;;;;;;5067566;28;20040;-46
2021/10/20 05:00:34;;;;;;;8.50;5.60;;;15.00;99.90;;;;;;5069628;28;20474;-48
2021/10/20 05:03:00;;;;;;;9.18;5.90;;;15.00;99.90;;;;;;5074106;28;20414;-47
2021/10/20 05:05:28;;;;;;;7.40;5.68;;;15.00;99.90;;;;;;5084948;28;20050;-48
2021/10/20 05:07:55;;;;;;;7.65;5.45;;;15.00;99.90;;;;;;5089032;28;20389;-46
2021/10/20 05:10:22;;;;;;;8.20;5.00;;;15.00;99.90;;;;;;5087907;28;20020;-46
2021/10/20 05:12:48;;;;;;;13.13;5.88;;;15.00;99.90;;;;;;5073750;28;20028;-46
2021/10/20 05:15:14;;;;;;;8.70;5.82;;;15.00;99.90;;;;;;5058534;28;20032;-47
2021/10/20 05:17:41;;;;;;;8.20;5.38;;;15.00;99.90;;;;;;5070748;28;20032;-48
2021/10/20 05:20:07;;;;;;;6.82;5.65;;;14.90;99.90;;;;;;5077842;28;20040;-47
2021/10/20 05:22:34;;;;;;;8.07;4.72;;;14.90;99.90;;;;;;5053711;28;20029;-46
2021/10/20 05:25:00;;;;;;;6.50;5.45;;;14.90;99.90;;;;;;5050144;28;20029;-49
2021/10/20 05:27:25;;;;;;;11.20;5.25;;;14.90;99.90;;;;;;5048235;28;20101;-46
2021/10/20 05:29:51;;;;;;;8.60;5.15;;;14.90;99.90;;;;;;5050350;28;20032;-46
2021/10/20 05:32:16;;;;;;;10.70;5.22;;;14.90;99.90;;;;;;5061767;28;20024;-46
2021/10/20 05:34:42;;;;;;;8.93;5.68;;;15.00;99.90;;;;;;5071979;28;20036;-47
2021/10/20 05:37:08;;;;;;;8.40;5.75;;;14.90;99.90;;;;;;5051843;28;20064;-48
2021/10/20 05:39:33;;;;;;;13.18;6.05;;;14.90;99.90;;;;;;5062915;28;20119;-49
2021/10/20 05:41:59;;;;;;;9.63;6.13;;;14.90;99.90;;;;;;5087483;28;20397;-48
2021/10/20 05:44:24;;;;;;;9.07;6.13;;;14.90;99.90;;;;;;5068084;28;20460;-48
2021/10/20 05:46:50;;;;;;;6.97;4.80;;;15.00;99.90;;;;;;5068297;28;20029;-50
2021/10/20 05:49:16;;;;;;;11.07;6.10;;;15.00;99.90;;;;;;5067043;28;20100;-50
2021/10/20 05:51:41;;;;;;;10.27;6.13;;;15.00;99.90;;;;;;5068029;28;20104;-48
2021/10/20 05:54:07;;;;;;;8.90;5.10;;;15.10;99.90;;;;;;5067763;28;20039;-48
2021/10/20 05:56:32;;;;;;;6.20;4.93;;;15.00;99.90;;;;;;5067743;28;20111;-50
2021/10/20 05:58:58;;;;;;;9.43;6.13;;;15.00;99.90;;;;;;5067529;28;20024;-50
2021/10/20 06:01:23;;;;;;;9.02;5.53;;;15.00;99.90;;;;;;5074557;28;20024;-49
2021/10/20 06:03:49;;;;;;;9.77;6.35;;;15.00;99.90;;;;;;5077308;28;20049;-50
2021/10/20 06:06:15;;;;;;;9.02;6.47;;;15.00;99.90;;;;;;5088099;28;20104;-48
2021/10/20 06:08:40;;;;;;;7.88;5.80;;;15.00;99.90;;;;;;5083741;28;20115;-48
2021/10/20 06:11:06;;;;;;;13.98;6.20;;;15.00;99.90;;;;;;5072039;28;20028;-48
2021/10/20 06:13:32;;;;;;;8.30;5.65;;;15.00;99.90;;;;;;5073341;28;20024;-49
2021/10/20 06:15:57;;;;;;;9.52;6.50;;;15.00;99.90;;;;;;5079622;28;20502;-50
2021/10/20 06:18:23;;;;;;;10.40;6.22;;;15.00;99.90;;;;;;5086889;28;20298;-47
2021/10/20 06:20:48;;;;;;;9.88;6.25;;;15.10;99.90;;;;;;5087938;28;20110;-48
2021/10/20 06:23:14;;;;;;;10.82;6.65;;;15.20;99.90;;;;;;5087566;28;20114;-47
2021/10/20 06:25:39;;;;;;;11.10;6.88;;;15.10;99.90;;;;;;5079782;28;20024;-48
2021/10/20 06:28:05;;;;;;;8.98;6.55;;;15.10;99.90;;;;;;5083053;28;20016;-47
2021/10/20 06:30:31;;;;;;;8.80;5.32;;;15.10;99.90;;;;;;5073012;28;20024;-48
2021/10/20 06:32:56;;;;;;;11.10;6.03;;;15.20;99.90;;;;;;5061091;28;20062;-48
2021/10/20 06:35:22;;;;;;;8.68;6.10;;;15.20;99.90;;;;;;5079408;28;20028;-50
2021/10/20 06:37:50;;;;;;;12.30;6.75;;;15.20;99.90;;;;;;5066862;28;20111;-49
2021/10/20 06:40:16;;;;;;;12.02;6.65;;;15.20;99.90;;;;;;5051556;28;20028;-48
2021/10/20 06:42:42;;;;;;;12.38;6.13;;;15.20;99.90;;;;;;5048910;28;20036;-48
2021/10/20 06:45:08;;;;;;;16.15;6.30;;;15.20;99.90;;;;;;5063829;28;20498;-50
2021/10/20 06:47:33;;;;;;;9.77;6.05;;;15.20;99.90;;;;;;5050560;28;20049;-47
2021/10/20 06:49:59;;;;;;;11.35;6.93;;;15.20;99.90;;;;;;5085855;28;20098;-49
2021/10/20 06:52:25;;;;;;;14.40;7.30;;;15.20;99.90;;;;;;5070637;28;20405;-48
2021/10/20 06:54:51;;;;;;;8.93;6.53;;;15.40;99.90;;;;;;5071156;28;20032;-49
2021/10/20 06:57:17;;;;;;;8.80;5.70;;;15.30;99.90;;;;;;5058566;28;20035;-49
2021/10/20 06:59:43;;;;;;;12.95;6.18;;;15.40;99.90;;;;;;5070067;28;20116;-48
2021/10/20 07:02:09;;;;;;;12.55;7.15;;;15.40;99.90;;;;;;5064349;28;20390;-47
2021/10/20 07:04:34;;;;;;;11.63;7.50;;;15.50;99.90;;;;;;5072831;28;20021;-50
2021/10/20 07:07:00;;;;;;;10.00;6.25;;;15.50;99.90;;;;;;5069879;28;20094;-48
2021/10/20 07:09:25;;;;;;;11.23;6.38;;;15.50;99.90;;;;;;5058940;28;20048;-49
2021/10/20 07:11:51;;;;;;;9.50;6.32;;;15.50;99.90;;;;;;5050880;28;20126;-48
2021/10/20 07:14:16;;;;;;;9.15;5.45;;;15.70;99.90;;;;;;5050780;28;20049;-47
2021/10/20 07:16:42;;;;;;;12.40;6.40;;;15.80;99.90;;;;;;5050741;28;20037;-48
2021/10/20 07:19:08;;;;;;;12.68;6.18;;;15.80;99.90;;;;;;5060134;28;20085;-49
2021/10/20 07:21:38;;;;;;;7.57;5.18;;;15.90;99.90;;;;;;5072794;28;20505;-50
2021/10/20 07:24:04;;;;;;;16.52;6.22;;;16.00;99.90;;;;;;5078760;28;20055;-50
2021/10/20 07:26:31;;;;;;;8.68;5.75;;;16.00;99.90;;;;;;5070953;28;20056;-48
2021/10/20 07:28:56;;;;;;;8.77;5.32;;;16.10;99.90;;;;;;5059420;28;20383;-51
2021/10/20 07:31:22;;;;;;;8.82;5.28;;;16.20;99.90;;;;;;5057387;28;20036;-48
2021/10/20 07:33:47;;;;;;;7.30;5.07;;;16.20;99.90;;;;;;5069921;28;20059;-50
2021/10/20 07:36:13;;;;;;;9.18;5.53;;;16.30;99.90;;;;;;5076429;28;20033;-50
2021/10/20 07:38:38;;;;;;;6.03;5.00;;;16.30;99.90;;;;;;5070114;28;20541;-50
2021/10/20 07:41:04;;;;;;;7.95;5.88;;;16.40;99.90;;;;;;5071660;28;20111;-48
2021/10/20 07:43:30;;;;;;;5.90;4.63;;;16.60;99.90;;;;;;5078783;28;20027;-48
2021/10/20 07:45:56;;;;;;;7.93;5.72;;;16.70;99.90;;;;;;5057477;28;20478;-48
2021/10/20 07:48:22;;;;;;;7.10;5.53;;;16.70;99.90;;;;;;5052762;28;20444;-48
2021/10/20 07:50:48;;;;;;;7.13;4.93;;;16.70;99.90;;;;;;5068642;28;20164;-49
2021/10/20 07:53:13;;;;;;;9.15;5.22;;;16.80;99.90;;;;;;5050545;28;20515;-50
2021/10/20 07:55:39;;;;;;;8.13;4.88;;;16.80;99.90;;;;;;5055770;28;20108;-47
2021/10/20 07:58:04;;;;;;;7.40;5.40;;;16.90;99.90;;;;;;5063359;28;20048;-48
2021/10/20 08:00:30;;;;;;;9.48;5.32;;;17.00;99.90;;;;;;5074794;28;20024;-49
2021/10/20 08:02:56;;;;;;;9.48;5.70;;;17.10;99.90;;;;;;5068995;28;20554;-49
2021/10/20 08:05:21;;;;;;;7.13;5.15;;;17.00;99.90;;;;;;5076943;28;20036;-50
2021/10/20 08:07:47;;;;;;;8.82;5.05;;;17.20;99.90;;;;;;5069203;28;20037;-48
2021/10/20 08:10:19;;;;;;;8.65;5.32;;;17.10;99.90;;;;;;5052152;28;20074;-48
2021/10/20 08:12:45;;;;;;;8.50;5.40;;;17.10;99.90;;;;;;5067927;28;20036;-50
2021/10/20 08:15:12;;;;;;;6.32;4.75;;;17.10;99.90;;;;;;5079273;28;20056;-50
2021/10/20 08:17:38;;;;;;;10.38;5.72;;;17.20;99.90;;;;;;5059557;28;20047;-49
2021/10/20 08:20:06;;;;;;;8.32;5.38;;;17.00;99.90;;;;;;5053463;28;20025;-50
2021/10/20 08:22:31;;;;;;;13.70;5.47;;;17.00;99.90;;;;;;5055662;28;20029;-48
2021/10/20 08:24:57;;;;;;;11.77;5.18;;;16.90;99.90;;;;;;5063608;28;20044;-48
2021/10/20 08:27:22;;;;;;;7.53;5.18;;;16.90;99.90;;;;;;5049920;28;20040;-48
2021/10/20 08:29:48;;;;;;;7.47;5.28;;;17.00;99.90;;;;;;5067530;28;20090;-50
2021/10/20 08:32:13;;;;;;;7.47;5.00;;;17.00;99.90;;;;;;5064263;28;20041;-48
2021/10/20 08:34:39;;;;;;;6.60;4.38;;;17.00;99.90;;;;;;5067895;28;20040;-48
2021/10/20 08:37:04;;;;;;;8.57;5.50;;;17.10;99.90;;;;;;5069250;28;20029;-50
2021/10/20 08:39:30;;;;;;;9.85;5.32;;;17.10;99.90;;;;;;5057013;28;20348;-48
2021/10/20 08:41:57;;;;;;;8.25;5.40;;;17.20;99.90;;;;;;5049655;28;20033;-50
2021/10/20 08:44:23;;;;;;;6.53;4.85;;;17.30;99.90;;;;;;5054374;28;20103;-48
2021/10/20 08:46:51;;;;;;;8.23;5.15;;;17.20;99.90;;;;;;5049407;28;20554;-49
2021/10/20 08:49:17;;;;;;;9.10;4.75;;;17.20;99.90;;;;;;5061009;28;20025;-49
2021/10/20 08:51:43;;;;;;;7.10;4.78;;;17.20;99.90;;;;;;5059444;28;20120;-50
2021/10/20 08:54:08;;;;;;;6.78;4.43;;;17.20;99.90;;;;;;5068108;28;20028;-48
2021/10/20 08:56:34;;;;;;;9.10;5.15;;;17.20;99.90;;;;;;5059838;28;20031;-48
2021/10/20 08:59:03;;;;;;;9.38;4.80;;;17.20;99.90;;;;;;5057335;28;20095;-51
2021/10/20 09:01:28;;;;;;;8.38;4.88;;;17.10;99.90;;;;;;5058005;28;20024;-49
2021/10/20 09:03:54;;;;;;;7.63;5.20;;;17.10;99.90;;;;;;5062436;28;20034;-49
2021/10/20 09:06:19;;;;;;;8.07;4.85;;;17.20;99.90;;;;;;5063048;28;20063;-48
2021/10/20 09:08:46;;;;;;;6.07;4.40;;;17.20;99.90;;;;;;5061858;28;20029;-50
2021/10/20 09:11:33;;;;;;;8.00;4.70;;;17.10;99.90;;;;;;5059373;28;20040;-48
2021/10/20 09:14:02;;;;;;;8.27;5.07;;;17.20;99.90;;;;;;5063930;28;20031;-50
2021/10/20 09:16:29;;;;;;;7.90;4.78;;;17.20;99.90;;;;;;5057897;28;20028;-48
2021/10/20 09:18:57;;;;;;;7.97;4.50;;;17.20;99.90;;;;;;5059795;28;20489;-50
2021/10/20 09:21:23;;;;;;;6.10;4.80;;;17.30;99.90;;;;;;5060168;28;20188;-48
2021/10/20 09:23:48;;;;;;;4.65;3.97;;;17.20;99.90;;;;;;5064070;28;20033;-48
2021/10/20 09:26:14;;;;;;;6.72;4.57;;;17.20;99.90;;;;;;5059859;28;20025;-48
2021/10/20 09:28:40;;;;;;;8.32;5.10;;;17.30;99.90;;;;;;5057144;28;20498;-48
2021/10/20 09:31:07;;;;;;;7.63;4.70;;;17.40;99.90;;;;;;5063903;28;20028;-48
2021/10/20 09:33:35;;;;;;;7.35;4.85;;;17.40;99.90;;;;;;5073607;28;20032;-48
2021/10/20 09:36:05;;;;;;;7.72;4.88;;;17.50;99.90;;;;;;5079721;28;20064;-48
2021/10/20 09:38:45;;;;;;;5.75;4.30;;;17.60;99.90;;;;;;5078901;28;20435;-48
2021/10/20 09:41:12;;;;;;;8.50;4.53;;;17.70;99.90;;;;;;5049096;28;20410;-48
2021/10/20 09:43:41;;;;;;;5.07;4.13;;;17.80;99.90;;;;;;5065595;28;20044;-48
2021/10/20 09:46:06;;;;;;;7.32;4.63;;;18.00;99.90;;;;;;5063933;28;20108;-48
2021/10/20 09:48:42;;;;;;;10.45;4.63;;;18.10;99.90;;;;;;5065114;28;20268;-48
2021/10/20 09:51:12;;;;;;;8.90;4.82;;;18.20;99.90;;;;;;5059293;28;20318;-48
2021/10/20 09:53:39;;;;;;;;;;;18.40;99.90;;;;;;5057848;28;20027;-49
2021/10/20 09:56:22;;;;;;;9.80;5.22;;;18.60;99.90;;;;;;5067309;28;19908;-48
2021/10/20 09:58:49;;;;;;;9.60;5.43;;;18.90;99.90;;;;;;5067289;28;20089;-50
2021/10/20 10:01:20;;;;;;;6.20;4.68;;;19.10;99.90;;;;;;5062059;28;20487;-48
2021/10/20 10:03:45;;;;;;;;;;;19.50;99.90;;;;;;5061942;28;20025;-49
2021/10/20 10:06:11;;;;;;;13.18;6.57;;;19.90;98.40;;;;;;5062291;28;20169;-49
2021/10/20 10:08:36;;;;;;;9.48;6.65;;;20.20;98.60;;;;;;5059691;28;20025;-48
2021/10/20 10:11:02;;;;;;;9.45;6.05;;;20.50;97.20;;;;;;5048588;28;20029;-51
2021/10/20 10:13:30;;;;;;;7.80;5.22;;;20.90;96.40;;;;;;5056083;28;20029;-49
2021/10/20 10:15:59;;;;;;;10.48;5.03;;;20.70;96.30;;;;;;5056640;28;20021;-51
2021/10/20 10:18:25;;;;;;;7.07;4.65;;;20.50;96.40;;;;;;5054654;28;20036;-49
2021/10/20 10:20:51;;;;;;;7.05;4.38;;;20.40;97.00;;;;;;5065067;28;20037;-48
2021/10/20 10:23:19;;;;;;;8.40;4.40;;;20.20;97.10;;;;;;5065260;28;20079;-48
2021/10/20 10:25:44;;;;;;;4.47;3.85;;;20.00;97.40;;;;;;5048311;28;20025;-49
2021/10/20 10:28:22;;;;;;;7.57;4.53;;;19.80;97.80;;;;;;5047466;28;20043;-48
2021/10/20 10:31:05;;;;;;;9.85;4.32;;;19.40;98.20;;;;;;5063842;28;20020;-48
2021/10/20 10:33:33;;;;;;;5.90;3.80;;;19.10;99.10;;;;;;5060245;28;20386;-49
2021/10/20 10:36:19;;;;;;;4.10;3.70;;;18.80;99.80;;;;;;5065498;28;20035;-50
2021/10/20 10:39:00;;;;;;;9.93;4.35;;;18.80;99.90;;;;;;5063484;28;20029;-48
2021/10/20 10:41:32;;;;;;;4.85;3.95;;;18.80;99.90;;;;;;5050492;28;20068;-48
2021/10/20 10:44:01;;;;;;;5.32;4.40;;;18.90;99.90;;;;;;5063141;28;20029;-48
2021/10/20 10:46:38;;;;;;;6.47;3.70;;;19.00;99.90;;;;;;5064260;28;20020;-50
2021/10/20 10:49:24;;;;;;;5.45;3.70;;;20.30;98.90;;;;;;5045445;28;20047;-51
2021/10/20 10:52:17;;;;;;;12.02;4.25;;;22.10;95.50;;;;;;5057372;28;20047;-49
2021/10/20 10:54:58;;;;;;;6.30;3.72;;;23.30;93.00;;;;;;5050205;28;20363;-50
2021/10/20 10:57:35;;;;;;;5.45;3.75;;;24.00;90.90;;;;;;5066983;28;20080;-51
2021/10/20 11:00:05;;;;;;;6.10;3.97;;;24.60;88.20;;;;;;5058897;28;20024;-51
2021/10/20 11:02:39;;;;;;;8.57;3.92;;;23.40;90.00;;;;;;5066480;28;20362;-49
2021/10/20 11:05:06;;;;;;;11.23;4.63;;;23.00;90.50;;;;;;5069881;28;20028;-51
2021/10/20 11:07:33;;;;;;;6.53;3.83;;;22.50;91.50;;;;;;5053753;28;20089;-51
2021/10/20 11:10:00;;;;;;;6.70;4.65;;;21.90;92.20;;;;;;5066194;28;20107;-51
2021/10/20 11:12:25;;;;;;;7.40;4.45;;;21.80;93.00;;;;;;5064787;28;20120;-51
2021/10/20 11:14:55;;;;;;;7.55;5.00;;;21.80;93.30;;;;;;5081861;28;20517;-50
2021/10/20 11:17:21;;;;;;;6.87;4.77;;;21.50;93.50;;;;;;5045361;28;20032;-51
2021/10/20 11:19:46;;;;;;;7.10;4.20;;;21.20;94.40;;;;;;5062509;28;20028;-51
2021/10/20 11:22:20;;;;;;;7.88;4.63;;;21.10;94.70;;;;;;5051109;28;20117;-49
2021/10/20 11:24:47;;;;;;;10.00;4.80;;;20.90;95.10;;;;;;5072029;28;20111;-49
2021/10/20 11:27:14;;;;;;;11.18;5.50;;;20.50;96.10;;;;;;5074607;28;20128;-50
2021/10/20 11:29:41;;;;;;;16.33;5.55;;;20.30;96.30;;;;;;5065319;28;20025;-49
2021/10/20 11:32:10;;;;;;;8.15;4.63;;;20.10;97.00;;;;;;5064803;28;20028;-48
2021/10/20 11:34:38;;;;;;;10.00;5.40;;;20.00;98.00;;;;;;5056707;28;20025;-50
2021/10/20 11:37:05;;;;;;;13.95;5.25;;;20.00;97.30;;;;;;5074907;28;20122;-49
2021/10/20 11:39:31;;;;;;;6.95;5.28;;;19.80;97.80;;;;;;5060227;28;20040;-47
2021/10/20 11:41:59;;;;;;;8.90;5.00;;;19.60;98.20;;;;;;5050561;28;20375;-51
2021/10/20 11:44:32;;;;;;;6.57;4.88;;;19.70;98.10;;;;;;5060766;28;20021;-49
2021/10/20 11:47:09;;;;;;;9.60;5.43;;;20.10;97.90;;;;;;5058084;28;20059;-48
2021/10/20 11:49:42;;;;;;;6.68;4.80;;;20.50;97.10;;;;;;5058394;28;20111;-48
2021/10/20 11:52:11;;;;;;;9.20;4.45;;;20.90;96.40;;;;;;5059414;28;20367;-50
2021/10/20 11:54:38;;;;;;;7.18;5.68;;;20.90;96.00;;;;;;5054126;28;20036;-51
2021/10/20 11:57:07;;;;;;;11.13;5.15;;;20.70;96.70;;;;;;5061841;28;20303;-48
2021/10/20 11:59:33;;;;;;;11.43;5.82;;;20.40;96.80;;;;;;5061611;28;20435;-48
2021/10/20 12:02:00;;;;;;;10.00;5.00;;;19.90;97.70;;;;;;5055971;28;20029;-49
2021/10/20 12:04:26;;;;;;;11.02;5.50;;;19.60;98.40;;;;;;5067065;28;20508;-50
2021/10/20 12:06:57;;;;;;;11.55;5.35;;;19.40;99.00;;;;;;5063934;28;20025;-50
2021/10/20 12:09:24;;;;;;;9.45;5.18;;;19.20;99.50;;;;;;5061351;28;20033;-50
2021/10/20 12:11:51;;;;;;;7.57;5.05;;;19.10;99.90;;;;;;5052192;28;20037;-48
2021/10/20 12:14:19;;;;;;;10.30;5.38;;;19.10;99.90;;;;;;5050531;28;20457;-48
2021/10/20 12:16:45;;;;;;;12.70;6.05;;;19.30;99.90;;;;;;5069903;28;20052;-48
2021/10/20 12:19:11;;;;;;;10.00;5.43;;;19.50;99.90;;;;;;5054132;28;20107;-50
2021/10/20 12:21:39;;;;;;;8.57;4.97;;;19.70;99.50;;;;;;5056197;28;20125;-48
2021/10/20 12:24:06;;;;;;;7.68;5.40;;;19.60;99.60;;;;;;5049365;28;20207;-49
2021/10/20 12:26:34;;;;;;;10.07;4.82;;;20.00;99.00;;;;;;5069312;28;20070;-50
2021/10/20 12:29:06;;;;;;;7.20;5.45;;;20.00;99.00;;;;;;5067110;28;20112;-49
2021/10/20 12:31:32;;;;;;;6.53;5.03;;;19.90;99.10;;;;;;5069028;28;20021;-49
2021/10/20 12:33:57;;;;;;;9.98;5.25;;;19.70;99.50;;;;;;5071264;28;20141;-50
2021/10/20 12:36:26;;;;;;;11.43;5.97;;;19.60;99.90;;;;;;5080363;28;20028;-49
2021/10/20 12:38:52;;;;;;;7.95;5.85;;;19.50;99.90;;;;;;5068850;28;20579;-48